createdAt,value
2022-08-12T00:01:09.780Z,101424.59
2022-08-12T00:02:30.264Z,101425.84
2022-08-12T00:03:51.482Z,101418.72
2022-08-12T00:05:11.944Z,101420.81
2022-08-12T00:06:33.789Z,101421.22
2022-08-12T00:07:56.504Z,101419.53
2022-08-12T00:09:17.246Z,101419.53
2022-08-12T00:10:39.052Z,101419.91
2022-08-12T00:12:00.148Z,101418.22
2022-08-12T00:13:20.557Z,101416.56
2022-08-12T00:14:41.283Z,101420.31
2022-08-12T00:16:03.790Z,101422.41
2022-08-12T00:17:25.298Z,101413.59
2022-08-12T00:18:45.638Z,101416.53
2022-08-12T00:20:05.734Z,101422.97
2022-08-12T00:21:26.717Z,101420.44
2022-08-12T00:22:58.784Z,101414.38
2022-08-12T00:24:19.782Z,101415.38
2022-08-12T00:25:55.850Z,101413.91
2022-08-12T00:27:20.453Z,101415.78
2022-08-12T00:28:40.829Z,101418.88
2022-08-12T00:30:01.756Z,101415.53
2022-08-12T00:31:23.791Z,101418.41
2022-08-12T00:32:56.638Z,101415.91
2022-08-12T00:34:17.516Z,101425.06
2022-08-12T00:35:37.900Z,101425.47
2022-08-12T00:37:05.476Z,101422.13
2022-08-12T00:38:34.307Z,101421.28
2022-08-12T00:39:55.937Z,101423.31
2022-08-12T00:41:17.142Z,101424.56
2022-08-12T00:42:20.982Z,101418.28
2022-08-12T00:43:25.808Z,101416.63
2022-08-12T00:44:27.946Z,101422.06
2022-08-12T00:45:52.151Z,101424.94
2022-08-12T00:46:57.811Z,101424.94
2022-08-12T00:48:00.498Z,101421.59
2022-08-12T00:49:02.890Z,101427.03
2022-08-12T00:50:06.436Z,101429.06
2022-08-12T00:51:09.212Z,101426.19
2022-08-12T00:52:13.928Z,101430.75
2022-08-12T00:53:19.141Z,101428.22
2022-08-12T00:54:22.040Z,101421.16
2022-08-12T00:55:23.673Z,101425.72
2022-08-12T00:56:29.273Z,101421.34
2022-08-12T00:57:35.694Z,101427.78
2022-08-12T00:58:44.647Z,101432.38
2022-08-12T00:59:50.577Z,101427.13
2022-08-12T01:00:59.643Z,101424.63
2022-08-12T01:02:10.957Z,101441.09
2022-08-12T01:03:18.550Z,101427.72
2022-08-12T01:04:41.379Z,101440.44
2022-08-12T01:06:04.760Z,101439.78
2022-08-12T01:07:26.766Z,101436.44
2022-08-12T01:08:55.434Z,101435.75
2022-08-12T01:10:19.893Z,101435.97
2022-08-12T01:11:32.803Z,101431.78
2022-08-12T01:12:36.279Z,101433.81
2022-08-12T01:13:42.208Z,101434.88
2022-08-12T01:14:44.418Z,101435.91
2022-08-12T01:15:50.238Z,101439.63
2022-08-12T01:16:52.710Z,101431.72
2022-08-12T01:17:56.804Z,101434.59
2022-08-12T01:19:00.746Z,101441.03
2022-08-12T01:20:06.293Z,101435.81
2022-08-12T01:21:16.615Z,101436.84
2022-08-12T01:22:31.064Z,101438.72
2022-08-12T01:23:51.894Z,101436.22
2022-08-12T01:24:59.819Z,101442.66
2022-08-12T01:26:04.411Z,101438.47
2022-08-12T01:27:08.152Z,101442.19
2022-08-12T01:28:13.575Z,101437.63
2022-08-12T01:29:18.641Z,101432.38
2022-08-12T01:30:22.252Z,101437.13
2022-08-12T01:31:24.061Z,101439.81
2022-08-12T01:32:29.320Z,101438.16
2022-08-12T01:33:37.169Z,101441.69
2022-08-12T01:34:46.272Z,101440.22
2022-08-12T01:35:57.861Z,101434.78
2022-08-12T01:37:11.322Z,101436.88
2022-08-12T01:38:16.226Z,101440.59
2022-08-12T01:39:19.115Z,101438.91
2022-08-12T01:40:35.179Z,101436.19
2022-08-12T01:41:45.035Z,101435.56
2022-08-12T01:42:58.339Z,101434.72
2022-08-12T01:44:02.553Z,101437.63
2022-08-12T01:45:05.206Z,101437.81
2022-08-12T01:46:11.034Z,101436.97
2022-08-12T01:47:22.577Z,101437.16
2022-08-12T01:48:35.656Z,101431.91
2022-08-12T01:49:54.249Z,101435.84
2022-08-12T01:51:06.587Z,101427.91
2022-08-12T01:52:24.273Z,101435.38
2022-08-12T01:53:48.604Z,101434.75
2022-08-12T01:54:53.172Z,101430.53
2022-08-12T01:55:57.506Z,101433.44
2022-08-12T01:57:06.679Z,101439.88
2022-08-12T01:58:19.808Z,101434.84
2022-08-12T01:59:46.955Z,101433.16
2022-08-12T02:00:58.977Z,101433.34
2022-08-12T02:02:04.796Z,101428.50
2022-08-12T02:03:27.748Z,101427.84
2022-08-12T02:04:58.627Z,101428.03
2022-08-12T02:06:32.100Z,101429.25
2022-08-12T02:08:01.964Z,101432.16
2022-08-12T02:09:22.998Z,101426.28
2022-08-12T02:10:56.234Z,101433.72
2022-08-12T02:12:08.559Z,101440.19
2022-08-12T02:13:41.703Z,101435.78
2022-08-12T02:14:57.477Z,101437.81
2022-08-12T02:16:06.734Z,101435.50
2022-08-12T02:17:27.563Z,101439.25
2022-08-12T02:18:55.738Z,101440.09
2022-08-12T02:20:08.935Z,101442.31
2022-08-12T02:21:22.282Z,101440.63
2022-08-12T02:22:30.285Z,101439.78
2022-08-12T02:23:34.716Z,101436.44
2022-08-12T02:24:40.466Z,101440.16
2022-08-12T02:25:45.466Z,101449.28
2022-08-12T02:26:49.947Z,101449.47
2022-08-12T02:27:55.984Z,101447.78
2022-08-12T02:28:59.889Z,101441.72
2022-08-12T02:30:03.633Z,101443.75
2022-08-12T02:31:08.812Z,101450.22
2022-08-12T02:32:11.285Z,101445.81
2022-08-12T02:33:14.161Z,101437.88
2022-08-12T02:34:16.650Z,101442.47
2022-08-12T02:35:21.258Z,101438.25
2022-08-12T02:36:23.068Z,101448.03
2022-08-12T02:37:30.182Z,101442.00
2022-08-12T02:38:32.963Z,101446.56
2022-08-12T02:39:40.652Z,101443.84
2022-08-12T02:40:46.190Z,101440.47
2022-08-12T02:41:51.009Z,101438.81
2022-08-12T02:42:57.955Z,101444.38
2022-08-12T02:44:05.538Z,101440.03
2022-08-12T02:45:08.709Z,101440.19
2022-08-12T02:46:14.751Z,101442.06
2022-08-12T02:47:58.190Z,101439.56
2022-08-12T02:48:51.047Z,101438.72
2022-08-12T02:49:56.454Z,101442.44
2022-08-12T02:51:06.407Z,101438.03
2022-08-12T02:52:09.430Z,101437.22
2022-08-12T02:53:13.199Z,101433.00
2022-08-12T02:54:15.280Z,101442.16
2022-08-12T02:55:28.894Z,101447.56
2022-08-12T02:56:40.705Z,101443.34
2022-08-12T02:57:44.533Z,101444.38
2022-08-12T02:58:47.656Z,101451.66
2022-08-12T02:59:51.693Z,101441.84
2022-08-12T03:00:53.889Z,101446.59
2022-08-12T03:02:03.151Z,101444.06
2022-08-12T03:03:08.071Z,101442.41
2022-08-12T03:04:20.308Z,101436.16
2022-08-12T03:05:24.211Z,101438.19
2022-08-12T03:06:33.261Z,101437.34
2022-08-12T03:07:59.601Z,101441.09
2022-08-12T03:09:04.693Z,101439.41
2022-08-12T03:10:16.118Z,101438.56
2022-08-12T03:11:26.467Z,101438.75
2022-08-12T03:12:34.085Z,101438.91
2022-08-12T03:13:40.166Z,101441.81
2022-08-12T03:14:44.204Z,101448.41
2022-08-12T03:15:47.497Z,101451.97
2022-08-12T03:17:03.656Z,101449.63
2022-08-12T03:18:26.247Z,101444.22
2022-08-12T03:19:31.085Z,101441.72
2022-08-12T03:20:38.028Z,101442.72
2022-08-12T03:21:54.680Z,101447.47
2022-08-12T03:23:06.017Z,101435.81
2022-08-12T03:24:09.125Z,101440.56
2022-08-12T03:25:17.167Z,101432.44
2022-08-12T03:26:25.935Z,101439.91
2022-08-12T03:27:30.043Z,101444.31
2022-08-12T03:28:51.811Z,101440.91
2022-08-12T03:29:58.998Z,101442.78
2022-08-12T03:31:02.788Z,101437.56
2022-08-12T03:32:45.623Z,101434.88
2022-08-12T03:33:36.473Z,101439.59
2022-08-12T03:34:40.665Z,101441.66
2022-08-12T03:35:46.233Z,101436.25
2022-08-12T03:36:55.442Z,101442.66
2022-08-12T03:38:01.617Z,101434.53
2022-08-12T03:39:35.401Z,101433.91
2022-08-12T03:41:08.805Z,101438.44
2022-08-12T03:42:28.617Z,101438.44
2022-08-12T03:43:53.355Z,101434.22
2022-08-12T03:45:32.233Z,101436.28
2022-08-12T03:46:57.540Z,101436.28
2022-08-12T03:48:23.028Z,101439.31
2022-08-12T03:49:43.404Z,101439.53
2022-08-12T03:51:04.678Z,101436.97
2022-08-12T03:52:24.864Z,101439.03
2022-08-12T03:53:47.195Z,101434.84
2022-08-12T03:55:07.613Z,101438.56
2022-08-12T03:56:28.006Z,101434.34
2022-08-12T03:57:48.914Z,101438.06
2022-08-12T03:59:11.628Z,101435.72
2022-08-12T04:00:23.893Z,101429.66
2022-08-12T04:01:26.451Z,101434.38
2022-08-12T04:02:29.305Z,101430.88
2022-08-12T04:03:50.425Z,101430.03
2022-08-12T04:04:53.022Z,101430.19
2022-08-12T04:05:56.667Z,101425.81
2022-08-12T04:07:00.122Z,101420.59
2022-08-12T04:08:02.327Z,101428.88
2022-08-12T04:09:14.546Z,101430.75
2022-08-12T04:10:19.447Z,101429.06
2022-08-12T04:11:46.913Z,101432.78
2022-08-12T04:13:15.035Z,101439.03
2022-08-12T04:14:20.651Z,101431.91
2022-08-12T04:15:27.801Z,101438.38
2022-08-12T04:16:29.490Z,101435.81
2022-08-12T04:17:32.910Z,101442.94
2022-08-12T04:18:35.505Z,101441.22
2022-08-12T04:19:38.825Z,101441.22
2022-08-12T04:20:42.275Z,101443.94
2022-08-12T04:22:01.078Z,101444.78
2022-08-12T04:23:08.361Z,101445.63
2022-08-12T04:24:11.617Z,101459.97
2022-08-12T04:25:14.467Z,101459.13
2022-08-12T04:26:17.709Z,101456.44
2022-08-12T04:27:19.633Z,101460.97
2022-08-12T04:28:27.804Z,101453.72
2022-08-12T04:30:21.254Z,101451.88
2022-08-12T04:30:58.779Z,101453.72
2022-08-12T04:32:01.477Z,101452.03
2022-08-12T04:33:04.042Z,101447.63
2022-08-12T04:34:07.464Z,101450.53
2022-08-12T04:35:09.828Z,101448.00
2022-08-12T04:36:12.437Z,101450.69
2022-08-12T04:37:15.932Z,101453.41
2022-08-12T04:38:20.114Z,101439.25
2022-08-12T04:39:22.437Z,101439.25
2022-08-12T04:40:28.913Z,101445.50
2022-08-12T04:41:31.508Z,101446.50
2022-08-12T04:42:34.036Z,101448.34
2022-08-12T04:44:00.108Z,101445.84
2022-08-12T04:44:58.556Z,101440.44
2022-08-12T04:46:02.991Z,101435.91
2022-08-12T04:47:06.563Z,101445.00
2022-08-12T04:48:08.695Z,101448.56
2022-08-12T04:49:11.503Z,101438.59
2022-08-12T04:50:35.229Z,101449.56
2022-08-12T04:51:38.733Z,101442.47
2022-08-12T04:52:41.329Z,101446.22
2022-08-12T04:53:44.419Z,101445.34
2022-08-12T04:54:48.384Z,101442.66
2022-08-12T04:55:52.199Z,101443.66
2022-08-12T04:57:04.815Z,101443.66
2022-08-12T04:58:07.255Z,101439.13
2022-08-12T04:59:09.865Z,101445.34
2022-08-12T05:00:13.993Z,101433.88
2022-08-12T05:01:18.425Z,101439.97
2022-08-12T05:02:22.651Z,101440.81
2022-08-12T05:03:26.320Z,101432.50
2022-08-12T05:04:28.117Z,101434.56
2022-08-12T05:05:35.714Z,101438.09
2022-08-12T05:06:37.849Z,101439.97
2022-08-12T05:07:53.653Z,101440.81
2022-08-12T05:08:59.717Z,101431.84
2022-08-12T05:10:02.725Z,101443.31
2022-08-12T05:11:06.053Z,101438.09
2022-08-12T05:12:13.214Z,101438.09
2022-08-12T05:13:17.032Z,101441.47
2022-08-12T05:14:19.744Z,101445.00
2022-08-12T05:15:29.241Z,101446.69
2022-08-12T05:16:36.087Z,101433.84
2022-08-12T05:17:38.028Z,101439.25
2022-08-12T05:18:41.014Z,101435.53
2022-08-12T05:19:47.473Z,101438.03
2022-08-12T05:20:51.948Z,101439.72
2022-08-12T05:21:53.516Z,101432.47
2022-08-12T05:23:12.713Z,101438.53
2022-08-12T05:24:15.485Z,101435.66
2022-08-12T05:25:20.070Z,101436.47
2022-08-12T05:26:25.052Z,101439.88
2022-08-12T05:27:27.900Z,101427.19
2022-08-12T05:28:30.260Z,101439.50
2022-08-12T05:30:06.758Z,101435.13
2022-08-12T05:30:56.778Z,101432.06
2022-08-12T05:32:00.731Z,101438.97
2022-08-12T05:33:05.217Z,101437.09
2022-08-12T05:34:07.782Z,101438.44
2022-08-12T05:35:10.491Z,101437.41
2022-08-12T05:36:15.965Z,101438.91
2022-08-12T05:37:17.567Z,101437.91
2022-08-12T05:38:38.384Z,101441.91
2022-08-12T05:39:42.106Z,101450.50
2022-08-12T05:40:43.793Z,101446.78
2022-08-12T05:41:46.399Z,101456.38
2022-08-12T05:42:48.051Z,101444.56
2022-08-12T05:43:52.522Z,101446.06
2022-08-12T05:44:54.100Z,101451.09
2022-08-12T05:45:57.114Z,101455.16
2022-08-12T05:47:01.109Z,101450.72
2022-08-12T05:48:02.935Z,101455.22
2022-08-12T05:49:06.691Z,101453.13
2022-08-12T05:50:08.822Z,101448.25
2022-08-12T05:51:16.781Z,101455.78
2022-08-12T05:52:18.415Z,101451.13
2022-08-12T05:53:22.032Z,101452.53
2022-08-12T05:54:47.405Z,101458.56
2022-08-12T05:55:47.310Z,101451.66
2022-08-12T05:56:50.079Z,101458.66
2022-08-12T05:57:55.316Z,101454.00
2022-08-12T05:58:59.172Z,101459.28
2022-08-12T06:00:00.754Z,101462.09
2022-08-12T06:02:12.548Z,101463.88
2022-08-12T06:02:31.426Z,101463.28
2022-08-12T06:03:33.187Z,101461.88
2022-08-12T06:04:35.885Z,101464.88
2022-08-12T06:05:52.631Z,101464.16
2022-08-12T06:06:58.466Z,101465.41
2022-08-12T06:08:03.189Z,101470.09
2022-08-12T06:09:06.036Z,101469.50
2022-08-12T06:10:08.412Z,101465.22
2022-08-12T06:11:11.030Z,101462.75
2022-08-12T06:12:12.576Z,101468.44
2022-08-12T06:13:28.286Z,101465.78
2022-08-12T06:14:39.289Z,101469.63
2022-08-12T06:15:41.692Z,101466.78
2022-08-12T06:16:46.249Z,101466.66
2022-08-12T06:17:49.209Z,101469.25
2022-08-12T06:18:52.209Z,101463.72
2022-08-12T06:20:22.898Z,101462.94
2022-08-12T06:21:18.637Z,101467.56
2022-08-12T06:22:20.263Z,101467.84
2022-08-12T06:23:22.823Z,101470.78
2022-08-12T06:24:28.505Z,101456.41
2022-08-12T06:25:31.485Z,101462.13
2022-08-12T06:26:34.455Z,101465.72
2022-08-12T06:27:42.727Z,101461.16
2022-08-12T06:29:05.242Z,101463.28
2022-08-12T06:30:14.249Z,101467.94
2022-08-12T06:31:28.467Z,101459.84
2022-08-12T06:32:30.294Z,101462.59
2022-08-12T06:33:55.176Z,101464.31
2022-08-12T06:35:26.731Z,101461.84
2022-08-12T06:36:24.926Z,101463.75
2022-08-12T06:37:39.901Z,101461.06
2022-08-12T06:38:42.815Z,101466.53
2022-08-12T06:39:44.642Z,101465.09
2022-08-12T06:41:05.445Z,101463.44
2022-08-12T06:42:31.998Z,101460.34
2022-08-12T06:44:05.672Z,101461.59
2022-08-12T06:44:58.589Z,101462.69
2022-08-12T06:46:00.620Z,101460.00
2022-08-12T06:47:03.274Z,101459.59
2022-08-12T06:48:07.730Z,101456.06
2022-08-12T06:49:13.242Z,101456.25
2022-08-12T06:50:16.425Z,101458.16
2022-08-12T06:51:19.803Z,101446.69
2022-08-12T06:52:24.278Z,101456.09
2022-08-12T06:53:26.588Z,101453.81
2022-08-12T06:54:32.309Z,101458.00
2022-08-12T06:55:34.165Z,101455.91
2022-08-12T06:58:09.772Z,101454.03
2022-08-12T06:59:14.096Z,101460.31
2022-08-12T07:00:19.720Z,101460.09
2022-08-12T07:01:22.406Z,101464.72
2022-08-12T07:02:25.731Z,101458.44
2022-08-12T07:03:28.942Z,101451.53
2022-08-12T07:04:39.212Z,101456.31
2022-08-12T07:05:42.510Z,101455.88
2022-08-12T07:06:45.816Z,101456.09
2022-08-12T07:07:47.829Z,101462.59
2022-08-12T07:08:50.679Z,101457.38
2022-08-12T07:10:04.681Z,101453.81
2022-08-12T07:11:13.201Z,101457.56
2022-08-12T07:12:18.916Z,101461.53
2022-08-12T07:13:22.036Z,101452.53
2022-08-12T07:14:23.594Z,101456.28
2022-08-12T07:15:26.710Z,101459.84
2022-08-12T07:16:50.284Z,101461.72
2022-08-12T07:18:00.185Z,101462.97
2022-08-12T07:19:04.140Z,101460.47
2022-08-12T07:20:20.261Z,101461.28
2022-08-12T07:21:59.860Z,101455.41
2022-08-12T07:22:55.741Z,101455.84
2022-08-12T07:23:58.532Z,101461.69
2022-08-12T07:25:20.105Z,101457.09
2022-08-12T07:26:23.302Z,101457.75
2022-08-12T07:27:28.720Z,101456.69
2022-08-12T07:28:35.428Z,101454.63
2022-08-12T07:30:02.528Z,101463.59
2022-08-12T07:31:00.531Z,101471.75
2022-08-12T07:32:05.380Z,101459.66
2022-08-12T07:33:12.175Z,101466.75
2022-08-12T07:34:15.287Z,101461.31
2022-08-12T07:35:19.465Z,101460.91
2022-08-12T07:36:25.469Z,101470.75
2022-08-12T07:37:27.408Z,101469.72
2022-08-12T07:38:33.478Z,101465.72
2022-08-12T07:39:35.584Z,101473.03
2022-08-12T07:40:39.566Z,101467.19
2022-08-12T07:41:43.313Z,101461.56
2022-08-12T07:42:47.785Z,101468.47
2022-08-12T07:43:53.619Z,101467.22
2022-08-12T07:44:56.050Z,101465.97
2022-08-12T07:46:00.219Z,101463.03
2022-08-12T07:47:04.867Z,101467.22
2022-08-12T07:48:07.991Z,101463.47
2022-08-12T07:49:11.835Z,101461.34
2022-08-12T07:50:21.449Z,101460.31
2022-08-12T07:51:28.187Z,101467.22
2022-08-12T07:52:29.789Z,101469.75
2022-08-12T07:53:32.503Z,101464.31
2022-08-12T07:54:34.227Z,101467.69
2022-08-12T07:55:38.162Z,101464.97
2022-08-12T07:56:41.538Z,101471.06
2022-08-12T07:57:57.658Z,101470.22
2022-08-12T07:59:01.079Z,101469.16
2022-08-12T08:00:05.800Z,101467.91
2022-08-12T08:01:12.035Z,101466.00
2022-08-12T08:02:13.870Z,101466.66
2022-08-12T08:03:17.017Z,101468.97
2022-08-12T08:04:37.243Z,101470.63
2022-08-12T08:05:46.345Z,101474.16
2022-08-12T08:06:50.483Z,101473.13
2022-08-12T08:07:55.485Z,101473.97
2022-08-12T08:08:59.333Z,101471.06
2022-08-12T08:10:05.405Z,101474.41
2022-08-12T08:11:25.830Z,101466.25
2022-08-12T08:12:47.202Z,101472.53
2022-08-12T08:13:50.084Z,101474.41
2022-08-12T08:14:52.789Z,101471.25
2022-08-12T08:16:04.119Z,101475.25
2022-08-12T08:17:06.395Z,101472.31
2022-08-12T08:18:13.217Z,101469.16
2022-08-12T08:19:23.440Z,101473.56
2022-08-12T08:20:29.229Z,101470.66
2022-08-12T08:21:33.289Z,101461.41
2022-08-12T08:22:41.719Z,101471.06
2022-08-12T08:24:05.268Z,101466.44
2022-08-12T08:25:35.320Z,101472.72
2022-08-12T08:26:32.550Z,101475.25
2022-08-12T08:27:45.454Z,101474.81
2022-08-12T08:28:48.159Z,101471.06
2022-08-12T08:29:50.217Z,101473.38
2022-08-12T08:30:52.857Z,101468.53
2022-08-12T08:31:56.841Z,101471.44
2022-08-12T08:33:00.499Z,101472.28
2022-08-12T08:34:33.830Z,101466.66
2022-08-12T08:35:32.819Z,101466.84
2022-08-12T08:36:49.119Z,101469.56
2022-08-12T08:37:52.790Z,101469.38
2022-08-12T08:38:58.097Z,101473.78
2022-08-12T08:40:20.819Z,101469.13
2022-08-12T08:42:17.156Z,101471.06
2022-08-12T08:43:03.262Z,101462.47
2022-08-12T08:44:06.015Z,101464.75
2022-08-12T08:45:12.891Z,101459.72
2022-08-12T08:46:15.547Z,101460.97
2022-08-12T08:47:17.155Z,101464.78
2022-08-12T08:48:22.184Z,101461.41
2022-08-12T08:49:24.770Z,101469.16
2022-08-12T08:50:28.212Z,101464.75
2022-08-12T08:51:31.118Z,101466.22
2022-08-12T08:52:46.457Z,101468.50
2022-08-12T08:53:52.774Z,101471.00
2022-08-12T08:54:55.329Z,101469.75
2022-08-12T08:56:04.992Z,101467.03
2022-08-12T08:57:08.978Z,101461.34
2022-08-12T08:58:12.558Z,101460.06
2022-08-12T08:59:14.329Z,101465.34
2022-08-12T09:00:18.917Z,101468.47
2022-08-12T09:01:21.563Z,101462.59
2022-08-12T09:02:24.324Z,101467.59
2022-08-12T09:05:07.198Z,101468.84
2022-08-12T09:05:13.566Z,101473.03
2022-08-12T09:06:14.549Z,101468.41
2022-08-12T09:07:51.002Z,101469.03
2022-08-12T09:08:43.109Z,101475.13
2022-08-12T09:10:02.665Z,101464.41
2022-08-12T09:12:07.182Z,101473.22
2022-08-12T09:13:02.386Z,101465.03
2022-08-12T09:14:18.819Z,101466.69
2022-08-12T09:15:21.701Z,101460.84
2022-08-12T09:16:25.018Z,101467.97
2022-08-12T09:17:27.153Z,101457.06
2022-08-12T09:18:45.984Z,101454.34
2022-08-12T09:19:52.264Z,101458.50
2022-08-12T09:21:01.996Z,101454.75
2022-08-12T09:22:04.999Z,101456.63
2022-08-12T09:23:56.755Z,101450.75
2022-08-12T09:24:33.628Z,101453.69
2022-08-12T09:25:37.872Z,101455.16
2022-08-12T09:26:46.891Z,101450.31
2022-08-12T09:28:03.659Z,101445.50
2022-08-12T09:29:12.975Z,101457.00
2022-08-12T09:30:17.788Z,101453.00
2022-08-12T09:32:04.157Z,101449.66
2022-08-12T09:33:19.333Z,101454.88
2022-08-12T09:34:34.102Z,101453.84
2022-08-12T09:35:42.967Z,101454.44
2022-08-12T09:36:57.817Z,101451.50
2022-08-12T09:38:04.347Z,101450.25
2022-08-12T09:40:08.125Z,101450.88
2022-08-12T09:40:57.497Z,101453.59
2022-08-12T09:42:39.209Z,101454.66
2022-08-12T09:43:53.943Z,101445.41
2022-08-12T09:45:23.524Z,101455.25
2022-08-12T09:46:27.541Z,101448.75
2022-08-12T09:47:29.650Z,101448.31
2022-08-12T09:48:36.739Z,101442.66
2022-08-12T09:49:42.911Z,101439.69
2022-08-12T09:50:50.596Z,101435.47
2022-08-12T09:51:55.101Z,101437.53
2022-08-12T09:53:15.030Z,101432.47
2022-08-12T09:54:32.630Z,101433.09
2022-08-12T09:56:06.744Z,101431.81
2022-08-12T09:58:44.954Z,101425.91
2022-08-12T09:58:56.634Z,101429.03
2022-08-12T10:00:13.868Z,101426.31
2022-08-12T10:01:23.104Z,101428.03
2022-08-12T10:02:44.048Z,101423.78
2022-08-12T10:03:55.651Z,101431.97
2022-08-12T10:05:09.379Z,101427.34
2022-08-12T10:06:27.601Z,101425.47
2022-08-12T10:07:39.760Z,101426.28
2022-08-12T10:08:44.409Z,101422.28
2022-08-12T10:09:58.199Z,101418.06
2022-08-12T10:11:21.129Z,101425.81
2022-08-12T10:12:43.614Z,101421.38
2022-08-12T10:14:05.314Z,101408.81
2022-08-12T10:15:08.040Z,101418.22
2022-08-12T10:16:21.917Z,101410.41
2022-08-12T10:17:24.418Z,101409.38
2022-08-12T10:18:28.613Z,101409.56
2022-08-12T10:19:36.298Z,101408.47
2022-08-12T10:20:38.717Z,101404.09
2022-08-12T10:21:42.562Z,101397.56
2022-08-12T10:22:57.889Z,101397.78
2022-08-12T10:24:04.957Z,101399.44
2022-08-12T10:26:34.098Z,101398.19
2022-08-12T10:27:14.117Z,101393.38
2022-08-12T10:28:40.358Z,101388.97
2022-08-12T10:30:37.511Z,101380.56
2022-08-12T10:31:06.654Z,101387.09
2022-08-12T10:32:43.831Z,101376.78
2022-08-12T10:34:05.323Z,101382.47
2022-08-12T10:35:10.242Z,101382.66
2022-08-12T10:36:16.827Z,101378.69
2022-08-12T10:37:23.368Z,101380.97
2022-08-12T10:38:47.127Z,101380.72
2022-08-12T10:40:01.738Z,101383.00
2022-08-12T10:41:57.223Z,101376.50
2022-08-12T10:43:20.975Z,101368.53
2022-08-12T10:44:25.117Z,101380.06
2022-08-12T10:45:32.819Z,101369.53
2022-08-12T10:46:42.345Z,101370.13
2022-08-12T10:48:07.815Z,101365.28
2022-08-12T10:50:03.114Z,101356.25
2022-08-12T10:51:02.151Z,101357.31
2022-08-12T10:52:32.542Z,101356.25
2022-08-12T10:53:21.309Z,101354.13
2022-08-12T10:54:46.189Z,101351.41
2022-08-12T10:55:56.346Z,101351.78
2022-08-12T10:57:00.592Z,101361.41
2022-08-12T10:58:14.746Z,101367.25
2022-08-12T11:00:30.121Z,101359.91
2022-08-12T11:01:25.635Z,101360.16
2022-08-12T11:04:28.239Z,101350.03
2022-08-12T11:04:31.478Z,101358.00
2022-08-12T11:07:06.014Z,101352.31
2022-08-12T11:07:08.743Z,101358.84
2022-08-12T11:08:34.642Z,101346.03
2022-08-12T11:09:13.597Z,101344.94
2022-08-12T11:10:19.215Z,101343.72
2022-08-12T11:12:34.605Z,101346.22
2022-08-12T11:12:58.418Z,101341.59
2022-08-12T11:14:01.900Z,101339.44
2022-08-12T11:15:18.923Z,101336.25
2022-08-12T11:16:25.177Z,101334.16
2022-08-12T11:17:34.918Z,101325.50
2022-08-12T11:18:46.949Z,101328.00
2022-08-12T11:19:57.251Z,101322.31
2022-08-12T11:21:00.910Z,101327.06
2022-08-12T11:22:08.089Z,101324.13
2022-08-12T11:23:26.012Z,101328.28
2022-08-12T11:24:33.959Z,101311.06
2022-08-12T11:25:42.218Z,101315.47
2022-08-12T11:27:00.290Z,101323.44
2022-08-12T11:28:02.875Z,101322.16
2022-08-12T11:29:22.544Z,101328.00
2022-08-12T11:30:31.593Z,101325.00
2022-08-12T11:31:41.056Z,101322.28
2022-08-12T11:32:57.674Z,101321.44
2022-08-12T11:34:06.139Z,101321.81
2022-08-12T11:35:22.163Z,101327.75
2022-08-12T11:36:26.190Z,101319.34
2022-08-12T11:37:27.837Z,101308.16
2022-08-12T11:38:30.392Z,101319.72
2022-08-12T11:40:55.107Z,101316.72
2022-08-12T11:41:56.699Z,101312.47
2022-08-12T11:43:19.110Z,101295.63
2022-08-12T11:44:36.938Z,101303.59
2022-08-12T11:45:47.171Z,101294.94
2022-08-12T11:46:52.418Z,101289.22
2022-08-12T11:47:55.583Z,101304.97
2022-08-12T11:48:58.540Z,101295.72
2022-08-12T11:50:00.396Z,101289.16
2022-08-12T11:51:04.126Z,101297.97
2022-08-12T11:52:27.253Z,101298.56
2022-08-12T11:53:59.440Z,101290.34
2022-08-12T11:54:54.281Z,101293.34
2022-08-12T11:55:56.171Z,101291.41
2022-08-12T11:57:02.482Z,101281.56
2022-08-12T12:00:23.709Z,101286.41
2022-08-12T12:02:21.736Z,101282.47
2022-08-12T12:03:23.466Z,101284.78
2022-08-12T12:04:29.322Z,101281.56
2022-08-12T12:05:41.641Z,101283.22
2022-08-12T12:06:52.851Z,101285.72
2022-08-12T12:08:37.394Z,101289.69
2022-08-12T12:09:17.704Z,101289.88
2022-08-12T12:10:20.539Z,101286.09
2022-08-12T12:11:24.929Z,101289.44
2022-08-12T12:12:26.875Z,101293.25
2022-08-12T12:14:07.444Z,101281.22
2022-08-12T12:14:55.043Z,101283.38
2022-08-12T12:16:00.222Z,101289.44
2022-08-12T12:17:01.987Z,101284.78
2022-08-12T12:18:04.666Z,101284.78
2022-08-12T12:19:08.784Z,101293.00
2022-08-12T12:20:13.475Z,101282.91
2022-08-12T12:21:16.248Z,101284.56
2022-08-12T12:22:23.665Z,101291.47
2022-08-12T12:23:36.205Z,101277.81
2022-08-12T12:24:38.255Z,101278.38
2022-08-12T12:26:06.949Z,101279.59
2022-08-12T12:27:05.039Z,101282.13
2022-08-12T12:28:06.747Z,101276.38
2022-08-12T12:30:19.922Z,101273.44
2022-08-12T12:30:31.324Z,101274.50
2022-08-12T12:32:09.257Z,101272.97
2022-08-12T12:32:58.160Z,101265.59
2022-08-12T12:33:59.800Z,101263.44
2022-08-12T12:35:14.474Z,101255.00
2022-08-12T12:36:29.596Z,101265.13
2022-08-12T12:38:03.985Z,101264.88
2022-08-12T12:38:54.988Z,101259.41
2022-08-12T12:39:57.716Z,101261.66
2022-08-12T12:41:16.440Z,101256.56
2022-08-12T12:42:41.754Z,101257.41
2022-08-12T12:43:43.292Z,101253.59
2022-08-12T12:44:53.570Z,101262.97
2022-08-12T12:45:56.967Z,101251.81
2022-08-12T12:47:00.936Z,101253.00
2022-08-12T12:48:06.359Z,101247.28
2022-08-12T12:49:11.163Z,101246.22
2022-08-12T12:50:26.934Z,101246.84
2022-08-12T12:51:48.970Z,101248.75
2022-08-12T12:53:01.704Z,101240.75
2022-08-12T12:54:06.336Z,101238.63
2022-08-12T12:55:13.708Z,101246.63
2022-08-12T12:56:20.883Z,101249.09
2022-08-12T12:58:00.766Z,101247.47
2022-08-12T12:59:03.465Z,101245.78
2022-08-12T13:00:15.596Z,101243.03
2022-08-12T13:01:26.714Z,101236.50
2022-08-12T13:02:33.126Z,101236.50
2022-08-12T13:03:49.305Z,101241.50
2022-08-12T13:04:53.657Z,101233.88
2022-08-12T13:05:57.058Z,101241.59
2022-08-12T13:06:58.957Z,101235.66
2022-08-12T13:08:18.791Z,101231.28
2022-08-12T13:09:36.145Z,101225.44
2022-08-12T13:10:38.496Z,101227.94
2022-08-12T13:11:55.111Z,101234.25
2022-08-12T13:14:06.493Z,101228.75
2022-08-12T13:14:28.861Z,101219.97
2022-08-12T13:15:45.016Z,101223.06
2022-08-12T13:16:48.234Z,101223.88
2022-08-12T13:18:02.300Z,101229.13
2022-08-12T13:19:04.309Z,101237.56
2022-08-12T13:20:13.216Z,101232.91
2022-08-12T13:21:55.934Z,101234.25
2022-08-12T13:22:59.025Z,101219.97
2022-08-12T13:24:10.474Z,101216.16
2022-08-12T13:25:12.858Z,101216.41
2022-08-12T13:26:17.199Z,101220.34
2022-08-12T13:27:20.782Z,101216.50
2022-08-12T13:28:28.435Z,101223.66
2022-08-12T13:29:33.432Z,101215.22